sensor_id;sensor_type;location;lat;lon;timestamp;temperature;humidity
35700;DHT22;21818;51.078;12.108;2022-09-01T00:01:22;16.00;85.50
35700;DHT22;21818;51.078;12.108;2022-09-01T00:03:52;15.70;86.30
35700;DHT22;21818;51.078;12.108;2022-09-01T00:06:19;15.80;86.50
35700;DHT22;21818;51.078;12.108;2022-09-01T00:08:52;15.80;86.30
35700;DHT22;21818;51.078;12.108;2022-09-01T00:11:19;15.80;86.70
35700;DHT22;21818;51.078;12.108;2022-09-01T00:13:44;15.70;86.90
35700;DHT22;21818;51.078;12.108;2022-09-01T00:16:10;15.80;86.90
35700;DHT22;21818;51.078;12.108;2022-09-01T00:18:39;15.70;87.30
35700;DHT22;21818;51.078;12.108;2022-09-01T00:21:07;15.70;87.10
35700;DHT22;21818;51.078;12.108;2022-09-01T00:23:33;15.80;86.80
35700;DHT22;21818;51.078;12.108;2022-09-01T00:25:59;15.80;86.50
35700;DHT22;21818;51.078;12.108;2022-09-01T00:28:24;15.80;86.40
35700;DHT22;21818;51.078;12.108;2022-09-01T00:30:50;15.80;86.40
35700;DHT22;21818;51.078;12.108;2022-09-01T00:33:15;15.70;86.60
35700;DHT22;21818;51.078;12.108;2022-09-01T00:35:41;15.70;87.00
35700;DHT22;21818;51.078;12.108;2022-09-01T00:38:06;15.50;87.40
35700;DHT22;21818;51.078;12.108;2022-09-01T00:40:32;15.50;87.60
35700;DHT22;21818;51.078;12.108;2022-09-01T00:42:58;15.60;87.20
35700;DHT22;21818;51.078;12.108;2022-09-01T00:45:25;15.70;87.00
35700;DHT22;21818;51.078;12.108;2022-09-01T00:47:51;15.70;86.90
35700;DHT22;21818;51.078;12.108;2022-09-01T00:50:18;15.90;86.50
35700;DHT22;21818;51.078;12.108;2022-09-01T00:52:48;16.20;85.70
35700;DHT22;21818;51.078;12.108;2022-09-01T00:55:18;16.40;85.10
35700;DHT22;21818;51.078;12.108;2022-09-01T00:57:46;16.30;85.20
35700;DHT22;21818;51.078;12.108;2022-09-01T01:00:25;16.50;85.10
35700;DHT22;21818;51.078;12.108;2022-09-01T01:02:52;16.50;84.50
35700;DHT22;21818;51.078;12.108;2022-09-01T01:05:24;16.20;85.20
35700;DHT22;21818;51.078;12.108;2022-09-01T01:07:54;15.90;86.00
35700;DHT22;21818;51.078;12.108;2022-09-01T01:10:21;15.80;86.30
35700;DHT22;21818;51.078;12.108;2022-09-01T01:12:48;15.70;86.40
35700;DHT22;21818;51.078;12.108;2022-09-01T01:15:17;15.70;86.60
35700;DHT22;21818;51.078;12.108;2022-09-01T01:17:43;15.60;86.70
35700;DHT22;21818;51.078;12.108;2022-09-01T01:20:13;15.60;86.70
35700;DHT22;21818;51.078;12.108;2022-09-01T01:25:52;15.70;86.30
35700;DHT22;21818;51.078;12.108;2022-09-01T01:28:33;15.60;86.10
35700;DHT22;21818;51.078;12.108;2022-09-01T01:31:07;15.60;86.20
35700;DHT22;21818;51.078;12.108;2022-09-01T01:33:44;15.60;86.30
35700;DHT22;21818;51.078;12.108;2022-09-01T01:36:14;15.60;86.20
35700;DHT22;21818;51.078;12.108;2022-09-01T01:38:42;15.60;86.10
35700;DHT22;21818;51.078;12.108;2022-09-01T01:41:09;15.60;85.90
35700;DHT22;21818;51.078;12.108;2022-09-01T01:43:35;15.70;85.80
35700;DHT22;21818;51.078;12.108;2022-09-01T01:46:04;15.60;85.80
35700;DHT22;21818;51.078;12.108;2022-09-01T01:48:33;15.60;85.80
35700;DHT22;21818;51.078;12.108;2022-09-01T01:51:01;15.60;86.10
35700;DHT22;21818;51.078;12.108;2022-09-01T01:53:29;15.60;86.40
35700;DHT22;21818;51.078;12.108;2022-09-01T01:55:55;15.60;86.30
35700;DHT22;21818;51.078;12.108;2022-09-01T01:58:23;15.60;86.10
35700;DHT22;21818;51.078;12.108;2022-09-01T02:00:51;15.60;86.30
35700;DHT22;21818;51.078;12.108;2022-09-01T02:03:20;15.50;86.60
35700;DHT22;21818;51.078;12.108;2022-09-01T02:05:48;15.50;86.60
35700;DHT22;21818;51.078;12.108;2022-09-01T02:08:15;15.50;86.70
35700;DHT22;21818;51.078;12.108;2022-09-01T02:10:44;15.50;86.80
35700;DHT22;21818;51.078;12.108;2022-09-01T02:13:12;15.30;87.70
35700;DHT22;21818;51.078;12.108;2022-09-01T02:15:46;15.10;88.10
35700;DHT22;21818;51.078;12.108;2022-09-01T02:18:14;15.10;88.60
35700;DHT22;21818;51.078;12.108;2022-09-01T02:20:41;15.00;88.80
35700;DHT22;21818;51.078;12.108;2022-09-01T02:23:07;15.00;88.90
35700;DHT22;21818;51.078;12.108;2022-09-01T02:25:41;15.10;88.60
35700;DHT22;21818;51.078;12.108;2022-09-01T02:28:09;15.00;89.40
35700;DHT22;21818;51.078;12.108;2022-09-01T02:30:45;14.80;89.90
35700;DHT22;21818;51.078;12.108;2022-09-01T02:33:13;14.80;90.30
35700;DHT22;21818;51.078;12.108;2022-09-01T02:35:44;14.70;90.30
35700;DHT22;21818;51.078;12.108;2022-09-01T02:38:11;14.70;90.30
35700;DHT22;21818;51.078;12.108;2022-09-01T02:40:39;14.70;90.30
35700;DHT22;21818;51.078;12.108;2022-09-01T02:43:05;14.60;90.60
35700;DHT22;21818;51.078;12.108;2022-09-01T02:45:32;14.60;90.80
35700;DHT22;21818;51.078;12.108;2022-09-01T02:47:59;14.50;90.70
35700;DHT22;21818;51.078;12.108;2022-09-01T02:50:25;14.40;90.90
35700;DHT22;21818;51.078;12.108;2022-09-01T02:52:51;14.30;91.30
35700;DHT22;21818;51.078;12.108;2022-09-01T02:55:18;14.30;91.40
35700;DHT22;21818;51.078;12.108;2022-09-01T02:57:48;14.40;91.10
35700;DHT22;21818;51.078;12.108;2022-09-01T03:00:15;14.60;90.80
35700;DHT22;21818;51.078;12.108;2022-09-01T03:02:55;14.40;91.20
35700;DHT22;21818;51.078;12.108;2022-09-01T03:05:23;14.30;91.30
35700;DHT22;21818;51.078;12.108;2022-09-01T03:08:00;14.40;91.40
35700;DHT22;21818;51.078;12.108;2022-09-01T03:10:29;14.10;91.80
35700;DHT22;21818;51.078;12.108;2022-09-01T03:13:10;14.00;92.00
35700;DHT22;21818;51.078;12.108;2022-09-01T03:15:37;14.00;92.10
35700;DHT22;21818;51.078;12.108;2022-09-01T03:18:04;14.00;92.10
35700;DHT22;21818;51.078;12.108;2022-09-01T03:20:32;14.00;92.20
35700;DHT22;21818;51.078;12.108;2022-09-01T03:23:01;14.00;92.10
35700;DHT22;21818;51.078;12.108;2022-09-01T03:25:28;14.10;92.00
35700;DHT22;21818;51.078;12.108;2022-09-01T03:27:55;14.20;92.10
35700;DHT22;21818;51.078;12.108;2022-09-01T03:30:29;14.10;92.20
35700;DHT22;21818;51.078;12.108;2022-09-01T03:32:56;14.10;92.30
35700;DHT22;21818;51.078;12.108;2022-09-01T03:35:23;14.20;91.90
35700;DHT22;21818;51.078;12.108;2022-09-01T03:37:49;14.30;91.60
35700;DHT22;21818;51.078;12.108;2022-09-01T03:40:15;14.40;91.50
35700;DHT22;21818;51.078;12.108;2022-09-01T03:42:42;14.30;91.70
35700;DHT22;21818;51.078;12.108;2022-09-01T03:45:08;14.20;91.70
35700;DHT22;21818;51.078;12.108;2022-09-01T03:47:40;14.20;91.70
35700;DHT22;21818;51.078;12.108;2022-09-01T03:50:12;14.10;91.70
35700;DHT22;21818;51.078;12.108;2022-09-01T03:52:56;14.20;91.70
35700;DHT22;21818;51.078;12.108;2022-09-01T03:55:26;14.00;91.90
35700;DHT22;21818;51.078;12.108;2022-09-01T03:57:54;13.80;92.20
35700;DHT22;21818;51.078;12.108;2022-09-01T04:00:22;13.70;92.40
35700;DHT22;21818;51.078;12.108;2022-09-01T04:02:50;13.70;92.50
35700;DHT22;21818;51.078;12.108;2022-09-01T04:05:17;13.80;92.30
35700;DHT22;21818;51.078;12.108;2022-09-01T04:07:47;13.70;92.40
35700;DHT22;21818;51.078;12.108;2022-09-01T04:10:14;13.70;92.70
35700;DHT22;21818;51.078;12.108;2022-09-01T04:12:40;13.70;92.60
35700;DHT22;21818;51.078;12.108;2022-09-01T04:15:06;13.80;92.50
35700;DHT22;21818;51.078;12.108;2022-09-01T04:17:33;13.80;92.40
35700;DHT22;21818;51.078;12.108;2022-09-01T04:20:17;13.70;92.30
35700;DHT22;21818;51.078;12.108;2022-09-01T04:22:45;13.70;92.30
35700;DHT22;21818;51.078;12.108;2022-09-01T04:25:12;13.70;92.40
35700;DHT22;21818;51.078;12.108;2022-09-01T04:27:38;13.70;92.20
35700;DHT22;21818;51.078;12.108;2022-09-01T04:30:05;13.80;92.00
35700;DHT22;21818;51.078;12.108;2022-09-01T04:32:38;13.70;92.10
35700;DHT22;21818;51.078;12.108;2022-09-01T04:35:05;13.80;91.90
35700;DHT22;21818;51.078;12.108;2022-09-01T04:37:32;13.90;91.80
35700;DHT22;21818;51.078;12.108;2022-09-01T04:40:03;14.90;91.90
35700;DHT22;21818;51.078;12.108;2022-09-01T04:42:29;16.50;90.50
35700;DHT22;21818;51.078;12.108;2022-09-01T04:44:58;17.50;88.20
35700;DHT22;21818;51.078;12.108;2022-09-01T04:47:26;18.00;85.70
35700;DHT22;21818;51.078;12.108;2022-09-01T04:49:55;16.40;85.30
35700;DHT22;21818;51.078;12.108;2022-09-01T04:52:23;15.20;87.50
35700;DHT22;21818;51.078;12.108;2022-09-01T04:54:49;14.50;90.50
35700;DHT22;21818;51.078;12.108;2022-09-01T04:57:14;14.10;91.10
35700;DHT22;21818;51.078;12.108;2022-09-01T04:59:41;13.90;91.50
35700;DHT22;21818;51.078;12.108;2022-09-01T05:02:08;13.70;91.90
35700;DHT22;21818;51.078;12.108;2022-09-01T05:04:34;13.60;92.00
35700;DHT22;21818;51.078;12.108;2022-09-01T05:07:00;13.60;92.10
35700;DHT22;21818;51.078;12.108;2022-09-01T05:09:32;13.70;92.00
35700;DHT22;21818;51.078;12.108;2022-09-01T05:12:00;13.70;92.00
35700;DHT22;21818;51.078;12.108;2022-09-01T05:14:39;13.60;92.10
35700;DHT22;21818;51.078;12.108;2022-09-01T05:17:10;13.60;92.30
35700;DHT22;21818;51.078;12.108;2022-09-01T05:19:41;13.60;92.40
35700;DHT22;21818;51.078;12.108;2022-09-01T05:22:07;13.60;92.60
35700;DHT22;21818;51.078;12.108;2022-09-01T05:24:35;13.50;92.90
35700;DHT22;21818;51.078;12.108;2022-09-01T05:27:02;13.50;92.90
35700;DHT22;21818;51.078;12.108;2022-09-01T05:29:28;13.70;92.50
35700;DHT22;21818;51.078;12.108;2022-09-01T05:31:54;13.70;92.70
35700;DHT22;21818;51.078;12.108;2022-09-01T05:34:21;13.70;92.80
35700;DHT22;21818;51.078;12.108;2022-09-01T05:36:57;13.80;92.50
35700;DHT22;21818;51.078;12.108;2022-09-01T05:39:25;13.90;92.60
35700;DHT22;21818;51.078;12.108;2022-09-01T05:41:51;13.90;92.50
35700;DHT22;21818;51.078;12.108;2022-09-01T05:44:18;14.10;92.30
35700;DHT22;21818;51.078;12.108;2022-09-01T05:46:47;14.10;92.30
35700;DHT22;21818;51.078;12.108;2022-09-01T05:49:14;14.10;92.40
35700;DHT22;21818;51.078;12.108;2022-09-01T05:51:46;14.20;92.40
35700;DHT22;21818;51.078;12.108;2022-09-01T05:54:15;14.40;92.10
35700;DHT22;21818;51.078;12.108;2022-09-01T05:56:42;14.50;92.10
35700;DHT22;21818;51.078;12.108;2022-09-01T05:59:08;14.50;91.90
35700;DHT22;21818;51.078;12.108;2022-09-01T06:01:35;14.50;92.10
35700;DHT22;21818;51.078;12.108;2022-09-01T06:04:05;14.60;91.90
35700;DHT22;21818;51.078;12.108;2022-09-01T06:06:42;14.80;91.70
35700;DHT22;21818;51.078;12.108;2022-09-01T06:09:12;14.90;91.70
35700;DHT22;21818;51.078;12.108;2022-09-01T06:11:39;15.00;91.50
35700;DHT22;21818;51.078;12.108;2022-09-01T06:14:06;15.10;91.30
35700;DHT22;21818;51.078;12.108;2022-09-01T06:16:33;15.20;91.30
35700;DHT22;21818;51.078;12.108;2022-09-01T06:19:00;15.20;91.20
35700;DHT22;21818;51.078;12.108;2022-09-01T06:21:27;15.30;91.20
35700;DHT22;21818;51.078;12.108;2022-09-01T06:23:55;15.40;91.20
35700;DHT22;21818;51.078;12.108;2022-09-01T06:26:31;15.40;91.10
35700;DHT22;21818;51.078;12.108;2022-09-01T06:28:59;15.40;91.10
35700;DHT22;21818;51.078;12.108;2022-09-01T06:31:29;15.50;91.10
35700;DHT22;21818;51.078;12.108;2022-09-01T06:34:00;15.60;90.90
35700;DHT22;21818;51.078;12.108;2022-09-01T06:36:27;15.70;90.80
35700;DHT22;21818;51.078;12.108;2022-09-01T06:38:54;15.80;90.80
35700;DHT22;21818;51.078;12.108;2022-09-01T06:41:21;15.90;90.60
35700;DHT22;21818;51.078;12.108;2022-09-01T06:43:48;15.90;90.70
35700;DHT22;21818;51.078;12.108;2022-09-01T06:46:18;15.90;90.60
35700;DHT22;21818;51.078;12.108;2022-09-01T06:48:45;16.00;90.50
35700;DHT22;21818;51.078;12.108;2022-09-01T06:51:16;16.10;90.40
35700;DHT22;21818;51.078;12.108;2022-09-01T06:53:44;16.10;90.30
35700;DHT22;21818;51.078;12.108;2022-09-01T06:56:11;16.20;90.30
35700;DHT22;21818;51.078;12.108;2022-09-01T06:58:41;16.30;90.20
35700;DHT22;21818;51.078;12.108;2022-09-01T07:01:14;16.30;90.10
35700;DHT22;21818;51.078;12.108;2022-09-01T07:03:45;16.40;90.00
35700;DHT22;21818;51.078;12.108;2022-09-01T07:06:13;16.40;90.20
35700;DHT22;21818;51.078;12.108;2022-09-01T07:08:38;16.50;89.80
35700;DHT22;21818;51.078;12.108;2022-09-01T07:11:06;16.50;89.90
35700;DHT22;21818;51.078;12.108;2022-09-01T07:13:33;16.60;89.80
35700;DHT22;21818;51.078;12.108;2022-09-01T07:16:01;16.60;89.60
35700;DHT22;21818;51.078;12.108;2022-09-01T07:18:29;16.70;89.50
35700;DHT22;21818;51.078;12.108;2022-09-01T07:20:55;16.70;89.30
35700;DHT22;21818;51.078;12.108;2022-09-01T07:23:21;16.80;89.10
35700;DHT22;21818;51.078;12.108;2022-09-01T07:25:49;16.80;89.00
35700;DHT22;21818;51.078;12.108;2022-09-01T07:28:19;16.90;89.00
35700;DHT22;21818;51.078;12.108;2022-09-01T07:30:50;17.30;88.20
35700;DHT22;21818;51.078;12.108;2022-09-01T07:33:18;17.70;86.80
35700;DHT22;21818;51.078;12.108;2022-09-01T07:35:47;18.10;85.80
35700;DHT22;21818;51.078;12.108;2022-09-01T07:38:14;18.30;85.10
35700;DHT22;21818;51.078;12.108;2022-09-01T07:40:45;18.50;84.40
35700;DHT22;21818;51.078;12.108;2022-09-01T07:43:20;18.70;83.80
35700;DHT22;21818;51.078;12.108;2022-09-01T07:45:54;18.90;83.40
35700;DHT22;21818;51.078;12.108;2022-09-01T07:48:21;18.90;83.00
35700;DHT22;21818;51.078;12.108;2022-09-01T07:50:50;19.00;82.80
35700;DHT22;21818;51.078;12.108;2022-09-01T07:53:20;19.10;82.60
35700;DHT22;21818;51.078;12.108;2022-09-01T07:55:50;19.10;82.40
35700;DHT22;21818;51.078;12.108;2022-09-01T07:58:21;19.20;82.20
35700;DHT22;21818;51.078;12.108;2022-09-01T08:00:48;19.20;81.90
35700;DHT22;21818;51.078;12.108;2022-09-01T08:03:17;19.30;81.60
35700;DHT22;21818;51.078;12.108;2022-09-01T08:05:43;19.40;81.40
35700;DHT22;21818;51.078;12.108;2022-09-01T08:08:09;19.40;81.30
35700;DHT22;21818;51.078;12.108;2022-09-01T08:10:39;19.40;81.10
35700;DHT22;21818;51.078;12.108;2022-09-01T08:13:05;19.50;80.90
35700;DHT22;21818;51.078;12.108;2022-09-01T08:15:31;19.50;80.80
35700;DHT22;21818;51.078;12.108;2022-09-01T08:17:56;19.50;80.60
35700;DHT22;21818;51.078;12.108;2022-09-01T08:20:22;19.60;80.50
35700;DHT22;21818;51.078;12.108;2022-09-01T08:22:48;19.60;80.30
35700;DHT22;21818;51.078;12.108;2022-09-01T08:25:13;19.60;80.20
35700;DHT22;21818;51.078;12.108;2022-09-01T08:27:39;19.60;80.10
35700;DHT22;21818;51.078;12.108;2022-09-01T08:30:08;19.60;79.90
35700;DHT22;21818;51.078;12.108;2022-09-01T08:32:34;19.70;79.80
35700;DHT22;21818;51.078;12.108;2022-09-01T08:35:00;19.70;79.70
35700;DHT22;21818;51.078;12.108;2022-09-01T08:37:26;19.70;79.60
35700;DHT22;21818;51.078;12.108;2022-09-01T08:39:52;19.70;79.40
35700;DHT22;21818;51.078;12.108;2022-09-01T08:42:43;19.80;79.30
35700;DHT22;21818;51.078;12.108;2022-09-01T08:45:26;19.80;79.20
35700;DHT22;21818;51.078;12.108;2022-09-01T08:47:55;19.80;79.10
35700;DHT22;21818;51.078;12.108;2022-09-01T08:50:22;19.80;79.00
35700;DHT22;21818;51.078;12.108;2022-09-01T08:53:18;19.90;78.90
35700;DHT22;21818;51.078;12.108;2022-09-01T08:55:50;19.80;78.80
35700;DHT22;21818;51.078;12.108;2022-09-01T08:58:17;19.90;78.80
35700;DHT22;21818;51.078;12.108;2022-09-01T09:00:46;19.90;78.70
35700;DHT22;21818;51.078;12.108;2022-09-01T09:06:25;19.90;78.50
35700;DHT22;21818;51.078;12.108;2022-09-01T09:17:01;20.00;78.10
35700;DHT22;21818;51.078;12.108;2022-09-01T09:19:31;20.10;78.10
35700;DHT22;21818;51.078;12.108;2022-09-01T09:22:00;20.00;77.90
35700;DHT22;21818;51.078;12.108;2022-09-01T09:24:53;20.10;78.00
35700;DHT22;21818;51.078;12.108;2022-09-01T09:29:49;20.10;77.80
35700;DHT22;21818;51.078;12.108;2022-09-01T09:32:16;20.10;77.70
35700;DHT22;21818;51.078;12.108;2022-09-01T09:34:42;20.10;78.20
35700;DHT22;21818;51.078;12.108;2022-09-01T09:37:24;20.10;77.60
35700;DHT22;21818;51.078;12.108;2022-09-01T09:43:01;20.10;77.40
35700;DHT22;21818;51.078;12.108;2022-09-01T09:45:29;20.10;77.40
35700;DHT22;21818;51.078;12.108;2022-09-01T09:47:56;20.10;77.40
35700;DHT22;21818;51.078;12.108;2022-09-01T09:50:31;20.20;77.30
35700;DHT22;21818;51.078;12.108;2022-09-01T09:53:27;20.10;77.20
35700;DHT22;21818;51.078;12.108;2022-09-01T09:55:59;20.10;77.10
35700;DHT22;21818;51.078;12.108;2022-09-01T09:58:36;20.20;77.20
35700;DHT22;21818;51.078;12.108;2022-09-01T10:01:05;20.10;77.10
35700;DHT22;21818;51.078;12.108;2022-09-01T10:03:37;20.20;77.10
35700;DHT22;21818;51.078;12.108;2022-09-01T10:06:03;20.20;77.00
35700;DHT22;21818;51.078;12.108;2022-09-01T10:11:05;20.20;76.90
35700;DHT22;21818;51.078;12.108;2022-09-01T10:13:31;20.20;76.90
35700;DHT22;21818;51.078;12.108;2022-09-01T10:16:02;20.20;76.90
35700;DHT22;21818;51.078;12.108;2022-09-01T10:18:34;20.20;76.80
35700;DHT22;21818;51.078;12.108;2022-09-01T10:21:05;20.20;76.70
35700;DHT22;21818;51.078;12.108;2022-09-01T10:23:33;20.20;76.70
35700;DHT22;21818;51.078;12.108;2022-09-01T10:26:06;20.20;76.60
35700;DHT22;21818;51.078;12.108;2022-09-01T10:28:33;20.30;76.60
35700;DHT22;21818;51.078;12.108;2022-09-01T10:31:03;20.30;76.60
35700;DHT22;21818;51.078;12.108;2022-09-01T10:33:29;20.30;76.50
35700;DHT22;21818;51.078;12.108;2022-09-01T10:35:55;20.30;76.50
35700;DHT22;21818;51.078;12.108;2022-09-01T10:38:28;20.30;76.40
35700;DHT22;21818;51.078;12.108;2022-09-01T10:40:56;20.30;76.40
35700;DHT22;21818;51.078;12.108;2022-09-01T10:43:38;20.30;76.30
35700;DHT22;21818;51.078;12.108;2022-09-01T10:48:51;20.30;76.20
35700;DHT22;21818;51.078;12.108;2022-09-01T10:53:43;20.30;76.10
35700;DHT22;21818;51.078;12.108;2022-09-01T10:56:22;20.30;76.10
35700;DHT22;21818;51.078;12.108;2022-09-01T10:59:07;20.40;76.00
35700;DHT22;21818;51.078;12.108;2022-09-01T11:04:12;20.40;75.90
35700;DHT22;21818;51.078;12.108;2022-09-01T11:11:46;20.40;75.70
35700;DHT22;21818;51.078;12.108;2022-09-01T11:14:18;20.40;75.70
35700;DHT22;21818;51.078;12.108;2022-09-01T11:17:12;20.40;75.60
35700;DHT22;21818;51.078;12.108;2022-09-01T11:19:43;20.50;75.60
35700;DHT22;21818;51.078;12.108;2022-09-01T11:27:11;20.50;75.50
35700;DHT22;21818;51.078;12.108;2022-09-01T11:29:56;20.50;75.40
35700;DHT22;21818;51.078;12.108;2022-09-01T11:32:26;20.50;75.40
35700;DHT22;21818;51.078;12.108;2022-09-01T11:34:56;20.50;75.40
35700;DHT22;21818;51.078;12.108;2022-09-01T11:37:24;20.50;75.30
35700;DHT22;21818;51.078;12.108;2022-09-01T11:39:54;20.50;75.30
35700;DHT22;21818;51.078;12.108;2022-09-01T11:42:25;20.50;75.20
35700;DHT22;21818;51.078;12.108;2022-09-01T11:44:54;20.50;75.20
35700;DHT22;21818;51.078;12.108;2022-09-01T11:47:33;20.50;75.20
35700;DHT22;21818;51.078;12.108;2022-09-01T11:50:06;20.60;75.20
35700;DHT22;21818;51.078;12.108;2022-09-01T11:52:37;20.60;75.10
35700;DHT22;21818;51.078;12.108;2022-09-01T11:55:07;20.60;75.10
35700;DHT22;21818;51.078;12.108;2022-09-01T11:57:37;20.60;75.00
35700;DHT22;21818;51.078;12.108;2022-09-01T12:00:06;20.60;75.00
35700;DHT22;21818;51.078;12.108;2022-09-01T12:02:34;20.60;75.00
35700;DHT22;21818;51.078;12.108;2022-09-01T12:05:03;20.60;74.90
35700;DHT22;21818;51.078;12.108;2022-09-01T12:07:47;20.60;74.90
35700;DHT22;21818;51.078;12.108;2022-09-01T12:10:32;20.60;74.90
35700;DHT22;21818;51.078;12.108;2022-09-01T12:13:07;20.70;74.80
35700;DHT22;21818;51.078;12.108;2022-09-01T12:15:35;20.70;74.80
35700;DHT22;21818;51.078;12.108;2022-09-01T12:18:20;20.70;74.80
35700;DHT22;21818;51.078;12.108;2022-09-01T12:20:51;20.70;74.70
35700;DHT22;21818;51.078;12.108;2022-09-01T12:25:58;20.70;74.70
35700;DHT22;21818;51.078;12.108;2022-09-01T12:28:26;20.70;74.70
35700;DHT22;21818;51.078;12.108;2022-09-01T12:30:57;20.70;74.60
35700;DHT22;21818;51.078;12.108;2022-09-01T12:33:23;20.80;74.60
35700;DHT22;21818;51.078;12.108;2022-09-01T12:35:50;20.70;74.50
35700;DHT22;21818;51.078;12.108;2022-09-01T12:38:28;20.80;74.50
35700;DHT22;21818;51.078;12.108;2022-09-01T12:40:55;20.80;74.50
35700;DHT22;21818;51.078;12.108;2022-09-01T12:43:36;20.80;74.50
35700;DHT22;21818;51.078;12.108;2022-09-01T12:46:05;20.80;74.40
35700;DHT22;21818;51.078;12.108;2022-09-01T12:48:36;20.80;74.40
35700;DHT22;21818;51.078;12.108;2022-09-01T12:51:24;20.80;74.30
35700;DHT22;21818;51.078;12.108;2022-09-01T12:53:53;20.80;74.30
35700;DHT22;21818;51.078;12.108;2022-09-01T12:56:26;20.90;74.30
35700;DHT22;21818;51.078;12.108;2022-09-01T12:59:04;20.90;74.20
35700;DHT22;21818;51.078;12.108;2022-09-01T13:01:33;20.90;74.10
35700;DHT22;21818;51.078;12.108;2022-09-01T13:04:10;20.90;74.10
35700;DHT22;21818;51.078;12.108;2022-09-01T13:06:36;20.90;74.00
35700;DHT22;21818;51.078;12.108;2022-09-01T13:09:02;20.90;74.00
35700;DHT22;21818;51.078;12.108;2022-09-01T13:11:27;20.90;73.90
35700;DHT22;21818;51.078;12.108;2022-09-01T13:13:53;21.00;73.90
35700;DHT22;21818;51.078;12.108;2022-09-01T13:16:18;21.00;73.80
35700;DHT22;21818;51.078;12.108;2022-09-01T13:18:44;21.00;73.80
35700;DHT22;21818;51.078;12.108;2022-09-01T13:21:11;21.00;73.70
35700;DHT22;21818;51.078;12.108;2022-09-01T13:23:37;21.10;73.70
35700;DHT22;21818;51.078;12.108;2022-09-01T13:26:02;21.10;73.70
35700;DHT22;21818;51.078;12.108;2022-09-01T13:28:29;21.10;73.60
35700;DHT22;21818;51.078;12.108;2022-09-01T13:30:58;21.10;73.50
35700;DHT22;21818;51.078;12.108;2022-09-01T13:33:27;21.10;73.50
35700;DHT22;21818;51.078;12.108;2022-09-01T13:35:53;21.10;73.40
35700;DHT22;21818;51.078;12.108;2022-09-01T13:38:19;21.10;73.30
35700;DHT22;21818;51.078;12.108;2022-09-01T13:40:46;21.20;73.30
35700;DHT22;21818;51.078;12.108;2022-09-01T13:43:17;21.20;73.20
35700;DHT22;21818;51.078;12.108;2022-09-01T13:45:44;21.20;73.20
35700;DHT22;21818;51.078;12.108;2022-09-01T13:48:09;21.20;73.10
35700;DHT22;21818;51.078;12.108;2022-09-01T13:50:36;21.30;73.10
35700;DHT22;21818;51.078;12.108;2022-09-01T13:53:03;21.30;73.00
35700;DHT22;21818;51.078;12.108;2022-09-01T13:55:32;21.30;73.00
35700;DHT22;21818;51.078;12.108;2022-09-01T13:57:58;21.30;72.90
35700;DHT22;21818;51.078;12.108;2022-09-01T14:00:30;21.40;72.90
35700;DHT22;21818;51.078;12.108;2022-09-01T14:02:58;21.40;72.80
35700;DHT22;21818;51.078;12.108;2022-09-01T14:05:26;21.40;72.70
35700;DHT22;21818;51.078;12.108;2022-09-01T14:07:52;21.40;72.60
35700;DHT22;21818;51.078;12.108;2022-09-01T14:10:20;21.40;72.60
35700;DHT22;21818;51.078;12.108;2022-09-01T14:12:46;21.50;72.50
35700;DHT22;21818;51.078;12.108;2022-09-01T14:15:13;21.50;72.50
35700;DHT22;21818;51.078;12.108;2022-09-01T14:17:39;21.50;72.40
35700;DHT22;21818;51.078;12.108;2022-09-01T14:20:09;21.50;72.30
35700;DHT22;21818;51.078;12.108;2022-09-01T14:22:36;21.50;72.20
35700;DHT22;21818;51.078;12.108;2022-09-01T14:25:02;21.60;72.20
35700;DHT22;21818;51.078;12.108;2022-09-01T14:27:27;21.60;72.30
35700;DHT22;21818;51.078;12.108;2022-09-01T14:29:53;21.60;72.20
35700;DHT22;21818;51.078;12.108;2022-09-01T14:32:19;21.60;72.20
35700;DHT22;21818;51.078;12.108;2022-09-01T14:34:54;21.60;72.10
35700;DHT22;21818;51.078;12.108;2022-09-01T14:37:20;21.60;72.00
35700;DHT22;21818;51.078;12.108;2022-09-01T14:39:54;21.60;71.90
35700;DHT22;21818;51.078;12.108;2022-09-01T14:42:21;21.70;71.90
35700;DHT22;21818;51.078;12.108;2022-09-01T14:44:50;21.70;71.90
35700;DHT22;21818;51.078;12.108;2022-09-01T14:47:16;21.70;71.80
35700;DHT22;21818;51.078;12.108;2022-09-01T14:49:42;21.70;71.70
35700;DHT22;21818;51.078;12.108;2022-09-01T14:52:09;21.70;71.70
35700;DHT22;21818;51.078;12.108;2022-09-01T14:54:37;21.80;71.70
35700;DHT22;21818;51.078;12.108;2022-09-01T14:57:03;21.80;71.60
35700;DHT22;21818;51.078;12.108;2022-09-01T14:59:29;21.80;71.60
35700;DHT22;21818;51.078;12.108;2022-09-01T15:01:55;21.80;71.50
35700;DHT22;21818;51.078;12.108;2022-09-01T15:04:21;21.80;71.40
35700;DHT22;21818;51.078;12.108;2022-09-01T15:06:47;21.80;71.40
35700;DHT22;21818;51.078;12.108;2022-09-01T15:09:12;21.80;71.40
35700;DHT22;21818;51.078;12.108;2022-09-01T15:11:40;21.90;71.40
35700;DHT22;21818;51.078;12.108;2022-09-01T15:14:06;21.90;71.30
35700;DHT22;21818;51.078;12.108;2022-09-01T15:16:34;21.90;71.30
35700;DHT22;21818;51.078;12.108;2022-09-01T15:19:07;21.90;71.30
35700;DHT22;21818;51.078;12.108;2022-09-01T15:21:34;21.90;71.30
35700;DHT22;21818;51.078;12.108;2022-09-01T15:24:02;21.90;71.30
35700;DHT22;21818;51.078;12.108;2022-09-01T15:26:28;21.90;71.20
35700;DHT22;21818;51.078;12.108;2022-09-01T15:28:54;21.90;71.20
35700;DHT22;21818;51.078;12.108;2022-09-01T15:31:22;21.90;71.10
35700;DHT22;21818;51.078;12.108;2022-09-01T15:33:49;21.90;71.10
35700;DHT22;21818;51.078;12.108;2022-09-01T15:36:20;21.90;71.10
35700;DHT22;21818;51.078;12.108;2022-09-01T15:38:47;21.90;71.10
35700;DHT22;21818;51.078;12.108;2022-09-01T15:41:18;21.90;71.10
35700;DHT22;21818;51.078;12.108;2022-09-01T15:43:44;21.90;71.00
35700;DHT22;21818;51.078;12.108;2022-09-01T15:46:10;21.90;71.00
35700;DHT22;21818;51.078;12.108;2022-09-01T15:48:36;21.90;71.00
35700;DHT22;21818;51.078;12.108;2022-09-01T15:53:49;22.00;71.00
35700;DHT22;21818;51.078;12.108;2022-09-01T15:56:15;22.00;71.00
35700;DHT22;21818;51.078;12.108;2022-09-01T15:58:45;22.00;71.00
35700;DHT22;21818;51.078;12.108;2022-09-01T16:01:11;22.00;71.00
35700;DHT22;21818;51.078;12.108;2022-09-01T16:03:36;22.00;70.90
35700;DHT22;21818;51.078;12.108;2022-09-01T16:06:04;22.00;70.90
35700;DHT22;21818;51.078;12.108;2022-09-01T16:08:31;22.00;70.90
35700;DHT22;21818;51.078;12.108;2022-09-01T16:10:57;22.00;70.90
35700;DHT22;21818;51.078;12.108;2022-09-01T16:13:22;22.00;70.90